Time;durP1;ratioP1;P1;durP2;ratioP2;P2;SDS_P1;SDS_P2;PMS_P1;PMS_P2;Temp;Humidity;BMP_temperature;BMP_pressure;BME280_temperature;BME280_humidity;BME280_pressure;Samples;Min_cycle;Max_cycle;Signal;HPM_P1;HPM_P2
2023/05/15 00:01:30;;;;;;;27.10;22.50;;;14.00;99.90;;;;;;4984575;28;20206;-35
2023/05/15 00:03:57;;;;;;;29.63;22.97;;;14.00;99.90;;;;;;4968451;28;20205;-34
2023/05/15 00:06:27;;;;;;;26.70;22.03;;;13.90;99.90;;;;;;4984487;28;20910;-34
2023/05/15 00:08:56;;;;;;;27.97;23.03;;;13.90;99.90;;;;;;4984721;28;20212;-34
2023/05/15 00:11:28;;;;;;;29.73;25.57;;;13.90;99.90;;;;;;4985754;28;20633;-34
2023/05/15 00:13:55;;;;;;;28.37;23.80;;;13.80;99.90;;;;;;4984617;28;20221;-34
2023/05/15 00:16:25;;;;;;;29.90;24.13;;;13.80;99.90;;;;;;4990003;28;20213;-34
2023/05/15 00:18:55;;;;;;;31.67;25.90;;;13.80;99.90;;;;;;5005581;28;20556;-34
2023/05/15 00:21:22;;;;;;;30.87;25.47;;;13.80;99.90;;;;;;5005667;28;20245;-34
2023/05/15 00:23:55;;;;;;;33.53;28.07;;;13.80;99.90;;;;;;5003933;28;20747;-34
2023/05/15 00:26:25;;;;;;;33.70;26.80;;;13.80;99.90;;;;;;5005350;28;20233;-34
2023/05/15 00:28:52;;;;;;;30.13;26.83;;;13.80;99.90;;;;;;5003628;28;20209;-34
2023/05/15 00:31:24;;;;;;;34.60;29.57;;;13.70;99.90;;;;;;5005462;28;20595;-34
2023/05/15 00:33:56;;;;;;;31.90;27.83;;;13.70;99.90;;;;;;4995264;28;20206;-34
2023/05/15 00:36:26;;;;;;;35.90;28.13;;;13.70;99.90;;;;;;4985668;28;20256;-34
2023/05/15 00:38:56;;;;;;;39.47;30.40;;;13.70;99.90;;;;;;4985764;28;20206;-34
2023/05/15 00:41:25;;;;;;;35.43;28.87;;;13.60;99.90;;;;;;4985662;28;20301;-34
2023/05/15 00:43:54;;;;;;;35.53;28.70;;;13.60;99.90;;;;;;4983793;28;20232;-34
2023/05/15 00:46:23;;;;;;;38.90;31.10;;;13.60;99.90;;;;;;4983829;28;20305;-34
2023/05/15 00:48:57;;;;;;;40.13;33.00;;;13.60;99.90;;;;;;4983905;28;20692;-34
2023/05/15 00:51:25;;;;;;;38.43;31.97;;;13.60;99.90;;;;;;4984567;28;20218;-34
2023/05/15 00:53:55;;;;;;;40.50;31.60;;;13.60;99.90;;;;;;4985230;28;20249;-34
2023/05/15 00:56:24;;;;;;;45.77;34.63;;;13.50;99.90;;;;;;4984905;28;20214;-34
2023/05/15 00:58:55;;;;;;;43.17;33.63;;;13.50;99.90;;;;;;4992355;28;20486;-34
2023/05/15 01:01:24;;;;;;;41.77;33.00;;;13.50;99.90;;;;;;5004858;28;20723;-34
2023/05/15 01:03:54;;;;;;;48.67;35.03;;;13.50;99.90;;;;;;5001276;28;20225;-34
2023/05/15 01:06:24;;;;;;;47.53;35.37;;;13.50;99.90;;;;;;4990327;28;20221;-34
2023/05/15 01:08:58;;;;;;;47.53;35.43;;;13.50;99.90;;;;;;4992912;28;20255;-34
2023/05/15 01:11:34;;;;;;;51.50;35.67;;;13.40;99.90;;;;;;5000253;28;20225;-34
2023/05/15 01:14:08;;;;;;;52.97;37.80;;;13.40;99.90;;;;;;5003364;28;20775;-34
2023/05/15 01:16:36;;;;;;;53.20;36.33;;;13.40;99.90;;;;;;4986961;28;20778;-34
2023/05/15 01:19:04;;;;;;;50.87;36.73;;;13.40;99.90;;;;;;5002899;28;20216;-34
2023/05/15 01:21:35;;;;;;;50.67;35.67;;;13.40;99.90;;;;;;5004429;28;20668;-34
2023/05/15 01:24:30;;;;;;;54.10;37.10;;;13.40;99.90;;;;;;5003947;28;20217;-34
2023/05/15 01:27:22;;;;;;;51.50;38.17;;;13.40;99.90;;;;;;5002726;28;20392;-34
2023/05/15 01:30:01;;;;;;;57.00;39.33;;;13.40;99.90;;;;;;5002882;28;20296;-34
2023/05/15 01:32:53;;;;;;;58.30;41.90;;;13.30;99.90;;;;;;5002987;28;20233;-34
2023/05/15 01:36:04;;;;;;;55.77;39.83;;;13.30;99.90;;;;;;5002952;28;20206;-35
2023/05/15 01:38:38;;;;;;;61.07;41.57;;;13.30;99.90;;;;;;5004499;28;20231;-34
2023/05/15 01:41:24;;;;;;;57.77;39.73;;;13.30;99.90;;;;;;5000436;28;20221;-34
2023/05/15 01:44:00;;;;;;;57.67;39.83;;;13.30;99.90;;;;;;4983314;28;20205;-34
2023/05/15 01:46:29;;;;;;;58.77;40.87;;;13.30;99.90;;;;;;4984785;28;20225;-34
2023/05/15 01:49:00;;;;;;;55.27;39.80;;;13.30;99.90;;;;;;4984798;28;20198;-34
2023/05/15 01:51:31;;;;;;;50.30;36.80;;;13.30;99.90;;;;;;4983197;28;20462;-34
2023/05/15 01:54:03;;;;;;;53.20;37.47;;;13.30;99.90;;;;;;4983664;28;20265;-34
2023/05/15 01:56:31;;;;;;;55.20;40.20;;;13.30;99.90;;;;;;4984280;28;20724;-34
2023/05/15 01:59:03;;;;;;;51.03;37.43;;;13.30;99.90;;;;;;4985191;28;20321;-34
2023/05/15 02:01:37;;;;;;;48.00;35.63;;;13.30;99.90;;;;;;4985048;28;20210;-34
2023/05/15 02:04:08;;;;;;;49.20;35.00;;;13.30;99.90;;;;;;4984904;28;20202;-33
2023/05/15 02:06:36;;;;;;;50.37;35.50;;;13.30;99.90;;;;;;4984512;28;20233;-33
2023/05/15 02:09:03;;;;;;;49.17;36.77;;;13.40;99.90;;;;;;4982960;28;20202;-33
2023/05/15 02:11:33;;;;;;;50.57;37.30;;;13.40;99.90;;;;;;4984533;28;20209;-33
2023/05/15 02:14:04;;;;;;;51.67;38.17;;;13.40;99.90;;;;;;4983399;28;20206;-33
2023/05/15 02:16:31;;;;;;;51.27;38.73;;;13.40;99.90;;;;;;4996302;28;20802;-33
2023/05/15 02:19:01;;;;;;;55.37;40.37;;;13.40;99.90;;;;;;5003028;28;20737;-33
2023/05/15 02:21:31;;;;;;;55.10;41.60;;;13.40;99.90;;;;;;5004920;28;20575;-33
2023/05/15 02:23:58;;;;;;;59.67;40.47;;;13.40;99.90;;;;;;5007937;28;20197;-33
2023/05/15 02:26:41;;;;;;;54.53;39.90;;;13.40;99.90;;;;;;5005871;28;20324;-33
2023/05/15 02:29:20;;;;;;;54.87;38.83;;;13.30;99.90;;;;;;5007569;28;20201;-33
2023/05/15 02:31:59;;;;;;;57.10;40.20;;;13.30;99.90;;;;;;5007779;28;20198;-33
2023/05/15 02:34:52;;;;;;;61.27;40.37;;;13.30;99.90;;;;;;4986283;28;20216;-33
2023/05/15 02:37:25;;;;;;;56.13;39.77;;;13.30;99.90;;;;;;4987739;28;20214;-33
2023/05/15 02:39:54;;;;;;;54.90;38.93;;;13.30;99.90;;;;;;4986442;28;20230;-32
2023/05/15 02:42:22;;;;;;;51.47;37.13;;;13.30;99.90;;;;;;5005334;28;20243;-33
2023/05/15 02:44:51;;;;;;;52.27;39.47;;;13.30;99.90;;;;;;4986772;28;20218;-33
2023/05/15 02:47:20;;;;;;;53.30;38.70;;;13.30;99.90;;;;;;4987653;28;20241;-33
2023/05/15 02:49:47;;;;;;;46.33;35.37;;;13.30;99.90;;;;;;4988120;28;20210;-32
2023/05/15 02:52:17;;;;;;;52.27;37.63;;;13.30;99.90;;;;;;4987463;28;20199;-33
2023/05/15 02:54:46;;;;;;;49.70;37.80;;;13.30;99.90;;;;;;4987604;28;20233;-33
2023/05/15 02:57:16;;;;;;;45.23;33.63;;;13.30;99.90;;;;;;4987291;28;20333;-33
2023/05/15 02:59:44;;;;;;;52.63;36.63;;;13.30;99.90;;;;;;4985768;28;20297;-33
2023/05/15 03:02:13;;;;;;;51.50;36.10;;;13.30;99.90;;;;;;4987815;28;20225;-32
2023/05/15 03:04:40;;;;;;;48.90;36.20;;;13.30;99.90;;;;;;4985851;28;20210;-33
2023/05/15 03:07:10;;;;;;;45.03;33.63;;;13.20;99.90;;;;;;4986472;28;20238;-33
2023/05/15 03:09:40;;;;;;;46.73;35.83;;;13.20;99.90;;;;;;4985889;28;20198;-33
2023/05/15 03:12:12;;;;;;;48.20;35.73;;;13.20;99.90;;;;;;4987434;28;20236;-33
2023/05/15 03:14:39;;;;;;;45.80;36.23;;;13.20;99.90;;;;;;4969464;28;20206;-33
2023/05/15 03:17:08;;;;;;;49.00;35.90;;;13.20;99.90;;;;;;4987229;28;20240;-32
2023/05/15 03:19:36;;;;;;;45.67;34.73;;;13.10;99.90;;;;;;4985627;28;20225;-32
2023/05/15 03:22:03;;;;;;;47.13;34.50;;;13.10;99.90;;;;;;4985220;28;20341;-33
2023/05/15 03:24:32;;;;;;;47.00;34.50;;;13.10;99.90;;;;;;4985832;28;20696;-32
2023/05/15 03:26:59;;;;;;;46.07;36.43;;;13.10;99.90;;;;;;4986625;28;20891;-33
2023/05/15 03:29:29;;;;;;;49.37;35.07;;;13.10;99.90;;;;;;4986737;28;20763;-32
2023/05/15 03:32:04;;;;;;;51.63;38.13;;;13.10;99.90;;;;;;4986606;28;20198;-33
2023/05/15 03:34:31;;;;;;;46.23;32.93;;;13.10;99.90;;;;;;4986725;28;20226;-33
2023/05/15 03:36:59;;;;;;;45.63;34.90;;;13.10;99.90;;;;;;4987791;28;20210;-33
2023/05/15 03:39:33;;;;;;;50.97;37.93;;;13.00;99.90;;;;;;4984995;28;20218;-32
2023/05/15 03:42:03;;;;;;;49.03;36.30;;;13.00;99.90;;;;;;4985452;28;20295;-33
2023/05/15 03:44:30;;;;;;;50.10;37.03;;;13.00;99.90;;;;;;4986412;28;20206;-33
2023/05/15 03:46:57;;;;;;;50.53;38.07;;;13.00;99.90;;;;;;4984910;28;20565;-33
2023/05/15 03:49:30;;;;;;;50.20;37.33;;;13.00;99.90;;;;;;4986392;28;20206;-33
2023/05/15 03:52:02;;;;;;;55.27;39.23;;;12.90;99.90;;;;;;4986344;28;20198;-33
2023/05/15 03:54:31;;;;;;;50.30;36.77;;;12.90;99.90;;;;;;4984844;28;20582;-32
2023/05/15 03:57:03;;;;;;;55.80;38.47;;;13.00;99.90;;;;;;4986772;28;20246;-32
2023/05/15 03:59:32;;;;;;;55.53;39.40;;;13.00;99.90;;;;;;4986195;28;20219;-32
2023/05/15 04:01:59;;;;;;;51.13;37.63;;;13.00;99.90;;;;;;4986472;28;20702;-33
2023/05/15 04:04:31;;;;;;;55.70;39.83;;;13.00;99.90;;;;;;4984651;28;20226;-33
2023/05/15 04:06:59;;;;;;;54.07;37.53;;;12.90;99.90;;;;;;4984562;28;20222;-33
2023/05/15 04:09:26;;;;;;;53.77;38.53;;;13.00;99.90;;;;;;4984609;28;20688;-33
2023/05/15 04:11:53;;;;;;;59.10;40.83;;;13.00;99.90;;;;;;4986216;28;20224;-33
2023/05/15 04:14:23;;;;;;;60.37;40.33;;;13.00;99.90;;;;;;4984607;28;20216;-33
2023/05/15 04:16:50;;;;;;;61.90;41.83;;;13.00;99.90;;;;;;4984246;28;21030;-32
2023/05/15 04:19:17;;;;;;;64.90;43.07;;;13.00;99.90;;;;;;4984810;28;20703;-32
2023/05/15 04:21:49;;;;;;;67.93;43.73;;;13.00;99.90;;;;;;4985926;28;20229;-32
2023/05/15 04:24:19;;;;;;;71.07;45.07;;;13.00;99.90;;;;;;4984093;28;20214;-33
2023/05/15 04:26:50;;;;;;;67.07;44.60;;;13.00;99.90;;;;;;4985507;28;20329;-33
2023/05/15 04:29:21;;;;;;;74.17;47.23;;;13.00;99.90;;;;;;4984450;28;20214;-32
2023/05/15 04:31:52;;;;;;;72.40;46.30;;;13.00;99.90;;;;;;4986589;28;20214;-33
2023/05/15 04:34:20;;;;;;;74.17;48.13;;;13.00;99.90;;;;;;4984253;28;20209;-34
2023/05/15 04:36:47;;;;;;;75.87;48.73;;;13.00;99.90;;;;;;4985661;28;20206;-33
2023/05/15 04:39:17;;;;;;;79.40;51.43;;;13.00;99.90;;;;;;4984264;28;20525;-34
2023/05/15 04:41:48;;;;;;;68.73;45.87;;;13.00;99.90;;;;;;4984066;28;20206;-33
2023/05/15 04:44:20;;;;;;;78.23;50.67;;;13.00;99.90;;;;;;4985151;28;20296;-33
2023/05/15 04:46:50;;;;;;;71.77;47.50;;;13.00;99.90;;;;;;4984117;28;20304;-32
2023/05/15 04:49:17;;;;;;;66.63;45.73;;;13.00;99.90;;;;;;4996699;28;20225;-33
2023/05/15 04:51:47;;;;;;;70.77;46.27;;;13.00;99.90;;;;;;5004933;28;20670;-33
2023/05/15 04:54:14;;;;;;;71.03;49.37;;;13.10;99.90;;;;;;5003773;28;20648;-33
2023/05/15 04:56:41;;;;;;;68.73;46.73;;;13.10;99.90;;;;;;4987203;28;20683;-33
2023/05/15 04:59:14;;;;;;;64.17;45.77;;;13.00;99.90;;;;;;5005345;28;20584;-33
2023/05/15 05:01:46;;;;;;;66.10;45.40;;;13.00;99.90;;;;;;4987507;28;20822;-32
2023/05/15 05:04:19;;;;;;;62.47;43.03;;;13.00;99.90;;;;;;5003213;28;20580;-33
2023/05/15 05:06:48;;;;;;;56.93;41.57;;;13.00;99.90;;;;;;5004014;28;20790;-33
2023/05/15 05:09:17;;;;;;;53.27;40.20;;;13.00;99.90;;;;;;5004758;28;20300;-33
2023/05/15 05:11:45;;;;;;;66.03;45.17;;;13.10;99.90;;;;;;4995450;28;20245;-32
2023/05/15 05:14:15;;;;;;;64.13;44.97;;;13.10;99.90;;;;;;4983592;28;20301;-33
2023/05/15 05:16:44;;;;;;;64.17;46.07;;;13.10;99.90;;;;;;4985217;28;20669;-33
2023/05/15 05:19:11;;;;;;;68.20;46.97;;;13.00;99.90;;;;;;4983428;28;20207;-33
2023/05/15 05:21:39;;;;;;;72.30;47.13;;;13.00;99.90;;;;;;4985155;28;20218;-33
2023/05/15 05:24:06;;;;;;;74.43;47.40;;;13.00;99.90;;;;;;4983922;28;20234;-33
2023/05/15 05:26:33;;;;;;;70.17;44.90;;;13.00;99.90;;;;;;4985119;28;20325;-32
2023/05/15 05:29:00;;;;;;;70.30;47.53;;;13.10;99.90;;;;;;4983616;28;20293;-33
2023/05/15 05:31:32;;;;;;;63.53;44.03;;;13.00;99.90;;;;;;4984917;28;20751;-32
2023/05/15 05:34:04;;;;;;;69.90;47.60;;;13.00;99.90;;;;;;4985091;28;20715;-32
2023/05/15 05:36:31;;;;;;;71.63;48.30;;;13.00;99.90;;;;;;4983441;28;20325;-32
2023/05/15 05:39:04;;;;;;;71.70;47.20;;;13.00;99.90;;;;;;4983883;28;20301;-32
2023/05/15 05:41:34;;;;;;;68.63;46.07;;;13.10;99.90;;;;;;4984665;28;20257;-32
2023/05/15 05:44:04;;;;;;;72.60;48.67;;;13.10;99.90;;;;;;4983106;28;20624;-32
2023/05/15 05:46:34;;;;;;;68.77;44.53;;;13.10;99.90;;;;;;4983262;28;20709;-32
2023/05/15 05:49:03;;;;;;;67.17;45.20;;;13.10;99.90;;;;;;4967538;28;20587;-32
2023/05/15 05:51:35;;;;;;;70.53;46.03;;;13.10;99.90;;;;;;4984659;28;20691;-32
2023/05/15 05:54:03;;;;;;;66.80;45.70;;;13.10;99.90;;;;;;4985089;28;20743;-32
2023/05/15 05:56:35;;;;;;;72.30;47.93;;;13.10;99.90;;;;;;4984366;28;21025;-33
2023/05/15 05:59:05;;;;;;;75.03;48.93;;;13.10;99.90;;;;;;4987038;28;20581;-33
2023/05/15 06:01:32;;;;;;;72.90;47.33;;;13.10;99.90;;;;;;4988425;28;20213;-32
2023/05/15 06:04:01;;;;;;;71.93;46.80;;;13.10;99.90;;;;;;4988220;28;20203;-32
2023/05/15 06:06:29;;;;;;;70.57;45.80;;;13.10;99.90;;;;;;4988077;28;20692;-32
2023/05/15 06:08:58;;;;;;;67.30;44.00;;;13.10;99.90;;;;;;4986792;28;20297;-32
2023/05/15 06:11:28;;;;;;;78.87;47.33;;;13.10;99.90;;;;;;4986751;28;20226;-32
2023/05/15 06:13:55;;;;;;;71.43;47.43;;;13.10;99.90;;;;;;4988624;28;20205;-32
2023/05/15 06:16:24;;;;;;;80.03;48.97;;;13.20;99.90;;;;;;4986688;28;20301;-32
2023/05/15 06:18:52;;;;;;;81.17;49.03;;;13.20;99.90;;;;;;4986508;28;20312;-32
2023/05/15 06:21:21;;;;;;;74.97;46.70;;;13.20;99.90;;;;;;4970458;28;20202;-32
2023/05/15 06:23:48;;;;;;;67.53;44.77;;;13.20;99.90;;;;;;4988222;28;20206;-32
2023/05/15 06:26:15;;;;;;;72.60;46.13;;;13.20;99.90;;;;;;4986447;28;20210;-32
2023/05/15 06:28:44;;;;;;;73.80;46.57;;;13.20;99.90;;;;;;4986801;28;20297;-32
2023/05/15 06:31:14;;;;;;;69.97;46.27;;;13.20;99.90;;;;;;4986989;28;20567;-32
2023/05/15 06:33:44;;;;;;;67.37;45.10;;;13.30;99.90;;;;;;4988035;28;20202;-32
2023/05/15 06:36:11;;;;;;;64.83;42.83;;;13.30;99.90;;;;;;4986434;28;20206;-32
2023/05/15 06:38:38;;;;;;;66.93;43.47;;;13.30;99.90;;;;;;4987100;28;20237;-32
2023/05/15 06:41:10;;;;;;;67.80;43.60;;;13.30;99.90;;;;;;4987433;28;20293;-32
2023/05/15 06:43:39;;;;;;;66.23;43.53;;;13.30;99.90;;;;;;4987425;28;20269;-32
2023/05/15 06:46:14;;;;;;;69.07;43.20;;;13.30;99.90;;;;;;4987544;28;20569;-32
2023/05/15 06:48:44;;;;;;;74.93;45.53;;;13.40;99.90;;;;;;4986473;28;20233;-32
2023/05/15 06:51:16;;;;;;;74.83;47.27;;;13.40;99.90;;;;;;4986018;28;20209;-32
2023/05/15 06:53:45;;;;;;;66.87;44.57;;;13.40;99.90;;;;;;4969919;28;20592;-32
2023/05/15 06:56:15;;;;;;;70.40;43.43;;;13.40;99.90;;;;;;4987417;28;20210;-32
2023/05/15 06:58:46;;;;;;;69.73;42.20;;;13.40;99.90;;;;;;4987474;28;20202;-32
2023/05/15 07:01:14;;;;;;;67.07;42.10;;;13.40;99.90;;;;;;4985882;28;21011;-32
2023/05/15 07:03:41;;;;;;;67.40;43.10;;;13.40;99.90;;;;;;4985755;28;20214;-32
2023/05/15 07:06:11;;;;;;;69.20;42.50;;;13.50;99.90;;;;;;4986118;28;20588;-32
2023/05/15 07:08:41;;;;;;;65.67;42.93;;;13.50;99.90;;;;;;4986914;28;20675;-32
2023/05/15 07:11:08;;;;;;;69.63;43.47;;;13.50;99.90;;;;;;4986741;28;20305;-32
2023/05/15 07:13:40;;;;;;;65.63;42.20;;;13.50;99.90;;;;;;4969906;28;20210;-32
2023/05/15 07:16:07;;;;;;;63.03;41.10;;;13.60;99.90;;;;;;4986859;28;20199;-32
2023/05/15 07:18:36;;;;;;;60.97;39.23;;;13.70;99.90;;;;;;4987151;28;20242;-32
2023/05/15 07:21:04;;;;;;;57.60;38.80;;;13.70;99.90;;;;;;4987447;28;20219;-32
2023/05/15 07:23:36;;;;;;;55.27;36.80;;;13.80;99.90;;;;;;5006895;28;20546;-34
2023/05/15 07:26:05;;;;;;;54.93;36.43;;;13.90;99.90;;;;;;5004903;28;20700;-34
2023/05/15 07:28:40;;;;;;;63.20;40.03;;;13.90;99.90;;;;;;4989829;28;20249;-34
2023/05/15 07:31:07;;;;;;;59.40;38.83;;;14.00;99.90;;;;;;4972750;28;20198;-34
2023/05/15 07:33:41;;;;;;;60.60;39.27;;;14.10;99.90;;;;;;5004682;28;20580;-34
2023/05/15 07:36:13;;;;;;;62.70;39.97;;;14.10;99.90;;;;;;5004277;28;20213;-34
2023/05/15 07:38:45;;;;;;;54.73;37.77;;;14.10;99.90;;;;;;5005081;28;20303;-34
2023/05/15 07:41:17;;;;;;;56.37;37.20;;;14.20;99.90;;;;;;5006193;28;20221;-34
2023/05/15 07:43:48;;;;;;;51.10;34.33;;;14.20;99.90;;;;;;5003477;28;20540;-34
2023/05/15 07:46:20;;;;;;;49.83;34.70;;;14.20;99.90;;;;;;4986659;28;20301;-34
2023/05/15 07:48:48;;;;;;;48.83;33.33;;;14.20;99.90;;;;;;4984824;28;20565;-34
2023/05/15 07:51:19;;;;;;;52.63;33.17;;;14.30;99.90;;;;;;4984639;28;20590;-34
2023/05/15 07:53:49;;;;;;;48.60;34.33;;;14.30;99.90;;;;;;4984797;28;20198;-34
2023/05/15 07:56:18;;;;;;;51.80;34.10;;;14.30;99.90;;;;;;4985120;28;20693;-34
2023/05/15 07:58:48;;;;;;;55.87;36.83;;;14.30;99.90;;;;;;4984881;28;20302;-34
2023/05/15 08:01:18;;;;;;;50.60;34.47;;;14.30;99.90;;;;;;4986056;28;20218;-34
2023/05/15 08:03:45;;;;;;;50.07;34.67;;;14.40;99.90;;;;;;4984496;28;20261;-34
2023/05/15 08:06:17;;;;;;;51.67;33.33;;;14.40;99.90;;;;;;4984589;28;20540;-34
2023/05/15 08:08:44;;;;;;;47.37;32.07;;;14.50;99.90;;;;;;4985946;28;20333;-34
2023/05/15 08:11:13;;;;;;;50.37;33.17;;;14.60;99.90;;;;;;4984547;28;20316;-34
2023/05/15 08:13:45;;;;;;;43.30;30.90;;;14.70;99.90;;;;;;4991756;28;20797;-34
2023/05/15 08:16:20;;;;;;;43.67;30.43;;;14.80;99.90;;;;;;5004492;28;20211;-34
2023/05/15 08:18:51;;;;;;;46.77;31.87;;;14.90;99.90;;;;;;5003305;28;20205;-34
2023/05/15 08:21:19;;;;;;;46.97;32.33;;;15.00;99.90;;;;;;5005204;28;20794;-34
2023/05/15 08:23:46;;;;;;;50.10;33.37;;;15.20;99.90;;;;;;5004000;28;20683;-34
2023/05/15 08:26:13;;;;;;;51.20;34.33;;;15.30;99.90;;;;;;5005294;28;20300;-34
2023/05/15 08:28:43;;;;;;;53.87;35.47;;;15.40;99.90;;;;;;5004996;28;20256;-34
2023/05/15 08:31:12;;;;;;;56.47;37.13;;;15.50;99.90;;;;;;4985748;28;20213;-34
2023/05/15 08:33:40;;;;;;;52.57;34.47;;;15.50;99.90;;;;;;4985811;28;20202;-34
2023/05/15 08:36:09;;;;;;;52.70;34.53;;;15.60;99.90;;;;;;4985562;28;20297;-34
2023/05/15 08:38:39;;;;;;;52.67;36.73;;;15.60;99.90;;;;;;4985365;28;20209;-34
2023/05/15 08:41:24;;;;;;;55.60;36.17;;;15.70;99.90;;;;;;4983816;28;20202;-34
2023/05/15 08:44:08;;;;;;;58.60;37.73;;;15.80;99.90;;;;;;4985252;28;20210;-34
2023/05/15 08:46:38;;;;;;;59.63;37.33;;;15.90;99.90;;;;;;4983755;28;20222;-34
2023/05/15 08:49:42;;;;;;;56.70;36.65;;;15.90;99.90;;;;;;4985417;28;20208;-33
2023/05/15 08:52:15;;;;;;;53.23;33.23;;;16.00;99.90;;;;;;4983821;28;20307;-34
2023/05/15 08:54:46;;;;;;;60.00;36.40;;;16.00;99.90;;;;;;4984951;28;20214;-33
2023/05/15 08:57:20;;;;;;;54.40;34.00;;;16.10;99.90;;;;;;4985204;28;20245;-33
2023/05/15 08:59:50;;;;;;;55.80;36.70;;;16.20;99.90;;;;;;4985258;28;20212;-34
2023/05/15 09:02:19;;;;;;;57.25;35.80;;;16.30;99.90;;;;;;4985155;28;20599;-33
2023/05/15 09:04:50;;;;;;;56.10;36.05;;;16.30;99.90;;;;;;4984062;28;20242;-33
2023/05/15 09:07:20;;;;;;;56.25;37.30;;;16.40;99.90;;;;;;4983581;28;20849;-33
2023/05/15 09:09:51;;;;;;;54.63;36.17;;;16.50;99.90;;;;;;4983649;28;21027;-33
2023/05/15 09:12:19;;;;;;;58.00;36.43;;;16.60;99.90;;;;;;4985133;28;20210;-33
2023/05/15 09:14:46;;;;;;;50.30;32.38;;;16.70;99.90;;;;;;4983602;28;20198;-33
2023/05/15 09:17:16;;;;;;;49.40;33.87;;;16.70;99.90;;;;;;4992563;28;20306;-33
2023/05/15 09:19:48;;;;;;;56.80;36.33;;;16.80;99.90;;;;;;4984801;28;20210;-35
2023/05/15 09:22:22;;;;;;;51.47;35.17;;;16.90;99.90;;;;;;4984797;28;20644;-34
2023/05/15 09:24:51;;;;;;;52.87;35.83;;;16.90;99.90;;;;;;4985074;28;20755;-33
2023/05/15 09:27:22;;;;;;;53.17;35.07;;;16.90;99.90;;;;;;4983610;28;20630;-33
2023/05/15 09:29:53;;;;;;;49.70;34.35;;;17.00;99.90;;;;;;4983348;28;20206;-33
2023/05/15 09:32:27;;;;;;;52.50;35.58;;;17.00;99.90;;;;;;4988921;28;20289;-33
2023/05/15 09:34:54;;;;;;;58.17;37.00;;;17.10;99.90;;;;;;4987610;28;20243;-33
2023/05/15 09:37:32;;;;;;;51.25;35.58;;;17.10;99.90;;;;;;4992084;28;20252;-33
2023/05/15 09:40:10;;;;;;;48.83;34.27;;;17.10;99.90;;;;;;5008079;28;20202;-33
2023/05/15 09:42:37;;;;;;;51.33;36.77;;;17.10;99.90;;;;;;5003361;28;20300;-33
2023/05/15 09:45:05;;;;;;;49.03;35.97;;;17.10;99.90;;;;;;4988172;28;20241;-34
2023/05/15 09:47:33;;;;;;;51.10;34.10;;;17.10;99.90;;;;;;4988260;28;20257;-33
2023/05/15 09:50:03;;;;;;;46.83;35.17;;;17.20;99.90;;;;;;4986913;28;20194;-33
2023/05/15 09:52:33;;;;;;;49.90;35.72;;;17.20;99.90;;;;;;4986987;28;20732;-33
2023/05/15 09:55:05;;;;;;;48.55;36.85;;;17.20;99.90;;;;;;4997835;28;20309;-33
2023/05/15 09:57:32;;;;;;;48.50;38.08;;;17.20;99.90;;;;;;5007782;28;20268;-33
2023/05/15 10:00:10;;;;;;;49.22;38.00;;;17.20;99.90;;;;;;5006040;28;20778;-34
2023/05/15 10:02:40;;;;;;;46.37;36.23;;;17.20;99.90;;;;;;5006592;28;20208;-34
2023/05/15 10:05:10;;;;;;;48.05;34.83;;;17.20;99.90;;;;;;5007928;28;20220;-34
2023/05/15 10:07:37;;;;;;;42.38;34.33;;;17.10;99.90;;;;;;5006107;28;20625;-34
2023/05/15 10:10:07;;;;;;;43.95;34.53;;;17.10;99.90;;;;;;5007680;28;20220;-34
2023/05/15 10:12:35;;;;;;;48.10;37.08;;;17.10;99.90;;;;;;5005011;28;20201;-34
2023/05/15 10:15:04;;;;;;;46.50;34.22;;;17.10;99.90;;;;;;4989833;28;20204;-34
2023/05/15 10:17:34;;;;;;;41.40;32.92;;;17.10;99.90;;;;;;4991215;28;20206;-34
2023/05/15 10:20:05;;;;;;;43.20;33.22;;;17.10;99.90;;;;;;4986456;28;20257;-34
2023/05/15 10:22:40;;;;;;;44.70;32.05;;;17.10;99.90;;;;;;4986379;28;20703;-34
2023/05/15 10:25:37;;;;;;;46.05;33.08;;;17.10;99.90;;;;;;4986557;28;20480;-34
2023/05/15 10:28:13;;;;;;;45.80;34.25;;;17.20;99.90;;;;;;4980977;28;20623;-34
2023/05/15 10:30:42;;;;;;;43.60;34.78;;;17.10;99.90;;;;;;4986759;28;20337;-33
2023/05/15 10:33:11;;;;;;;48.30;35.40;;;17.20;99.90;;;;;;4985947;28;20213;-34
2023/05/15 10:35:39;;;;;;;48.23;34.57;;;17.20;99.90;;;;;;4986357;28;20198;-34
2023/05/15 10:38:13;;;;;;;49.35;36.85;;;17.20;99.90;;;;;;4987236;28;20298;-34
2023/05/15 10:40:41;;;;;;;47.63;34.70;;;17.20;99.90;;;;;;4969991;28;20214;-34
2023/05/15 10:43:10;;;;;;;42.28;32.92;;;17.30;99.90;;;;;;4985000;28;20272;-34
2023/05/15 10:45:45;;;;;;;44.03;33.60;;;17.30;99.90;;;;;;4986164;28;20277;-35
2023/05/15 10:48:15;;;;;;;43.80;32.97;;;17.30;99.90;;;;;;4987410;28;20229;-34
2023/05/15 10:50:46;;;;;;;43.42;32.30;;;17.30;99.90;;;;;;4987790;28;20265;-34
2023/05/15 10:53:15;;;;;;;40.08;30.83;;;17.30;99.90;;;;;;4985806;28;20210;-34
2023/05/15 10:55:46;;;;;;;42.10;31.60;;;17.40;99.90;;;;;;4985616;28;20206;-34
2023/05/15 10:58:14;;;;;;;42.53;32.20;;;17.40;99.90;;;;;;4987145;28;20230;-34
2023/05/15 11:00:46;;;;;;;46.05;33.67;;;17.50;99.90;;;;;;4986916;28;20676;-34
2023/05/15 11:03:15;;;;;;;45.75;33.70;;;17.60;99.90;;;;;;4987723;28;20269;-34
2023/05/15 11:06:17;;;;;;;45.83;33.78;;;17.70;99.90;;;;;;4986882;28;20241;-34
2023/05/15 11:08:47;;;;;;;46.42;34.88;;;17.80;99.90;;;;;;4980028;28;20316;-34
2023/05/15 11:11:51;;;;;;;50.17;35.90;;;17.80;99.90;;;;;;4987438;28;20617;-34
2023/05/15 11:14:21;;;;;;;44.63;33.10;;;17.80;99.90;;;;;;4985380;28;20218;-34
2023/05/15 11:16:57;;;;;;;48.95;36.53;;;17.90;99.90;;;;;;4986917;28;20301;-34
2023/05/15 11:19:35;;;;;;;51.75;37.55;;;18.00;99.90;;;;;;4991392;28;20217;-34
2023/05/15 11:22:07;;;;;;;48.80;34.75;;;18.00;99.90;;;;;;5006413;28;20241;-34
2023/05/15 11:25:01;;;;;;;48.10;34.20;;;18.00;99.90;;;;;;5004770;28;20202;-34
2023/05/15 11:27:42;;;;;;;53.92;37.70;;;18.10;99.90;;;;;;5006250;28;20256;-34
2023/05/15 11:30:22;;;;;;;56.42;38.75;;;18.10;99.90;;;;;;5004529;28;20214;-34
2023/05/15 11:32:50;;;;;;;63.22;41.50;;;18.00;99.90;;;;;;5004627;28;20296;-34
2023/05/15 11:35:28;;;;;;;60.83;40.25;;;18.00;99.90;;;;;;5006514;28;20684;-34
2023/05/15 11:38:03;;;;;;;64.22;41.08;;;18.00;99.90;;;;;;5003867;28;20233;-34
2023/05/15 11:40:45;;;;;;;63.85;40.45;;;18.00;99.90;;;;;;5004849;28;20211;-34
2023/05/15 11:43:20;;;;;;;66.43;42.35;;;18.00;99.90;;;;;;5006678;28;20228;-34
2023/05/15 11:45:54;;;;;;;64.85;42.28;;;18.00;99.90;;;;;;5006297;28;20303;-34
2023/05/15 11:48:34;;;;;;;60.05;38.60;;;18.00;99.90;;;;;;4989062;28;20229;-34
2023/05/15 11:51:04;;;;;;;80.53;48.33;;;18.00;99.90;;;;;;4984717;28;20202;-34
2023/05/15 11:53:37;;;;;;;74.47;44.63;;;18.00;99.90;;;;;;4986490;28;20218;-34
2023/05/15 11:56:04;;;;;;;70.55;43.50;;;18.00;99.90;;;;;;4986141;28;20754;-34
2023/05/15 11:58:32;;;;;;;67.53;41.90;;;18.00;99.90;;;;;;4986250;28;20212;-34
2023/05/15 12:01:01;;;;;;;69.47;41.08;;;18.00;99.90;;;;;;4984535;28;20748;-34
2023/05/15 12:03:33;;;;;;;65.13;40.65;;;18.00;99.90;;;;;;4985988;28;20209;-34
2023/05/15 12:06:02;;;;;;;63.63;40.45;;;18.00;99.90;;;;;;4984540;28;20230;-34
2023/05/15 12:08:35;;;;;;;65.10;40.60;;;18.00;99.90;;;;;;4985760;28;20229;-34
2023/05/15 12:11:05;;;;;;;62.92;40.60;;;18.00;99.90;;;;;;4986525;28;20955;-34
2023/05/15 12:13:37;;;;;;;66.15;40.55;;;18.00;99.90;;;;;;4984318;28;20217;-34
2023/05/15 12:16:08;;;;;;;61.08;39.13;;;18.10;99.90;;;;;;4986294;28;20209;-34
2023/05/15 12:18:35;;;;;;;69.88;43.58;;;18.00;99.90;;;;;;4985912;28;20218;-34
2023/05/15 12:21:04;;;;;;;75.20;44.20;;;18.00;99.90;;;;;;4985789;28;20210;-34
2023/05/15 12:23:34;;;;;;;80.32;46.13;;;18.00;99.90;;;;;;4985708;28;20210;-34
2023/05/15 12:26:02;;;;;;;94.70;50.03;;;17.90;99.90;;;;;;4985694;28;20206;-34
2023/05/15 12:28:34;;;;;;;89.55;49.20;;;17.90;99.90;;;;;;4999247;28;20248;-34
2023/05/15 12:31:02;;;;;;;95.80;51.15;;;17.80;99.90;;;;;;5005663;28;20260;-34
2023/05/15 12:33:33;;;;;;;93.72;50.00;;;17.80;99.90;;;;;;5003688;28;20451;-34
2023/05/15 12:36:06;;;;;;;91.05;48.90;;;17.80;99.90;;;;;;5003691;28;20201;-34
2023/05/15 12:38:40;;;;;;;104.75;51.10;;;17.80;99.90;;;;;;5005310;28;20652;-34
2023/05/15 12:41:10;;;;;;;92.15;50.47;;;17.80;99.90;;;;;;5005370;28;20209;-33
2023/05/15 12:43:41;;;;;;;105.65;55.33;;;17.80;99.90;;;;;;5001497;28;20205;-33
2023/05/15 12:46:11;;;;;;;120.57;60.75;;;17.90;99.90;;;;;;4984491;28;20216;-33